sensor_id;sensor_type;location;lat;lon;timestamp;pressure;altitude;pressure_sealevel;temperature;humidity
17615;BME280;8926;49.720;6.576;2023-04-01T00:01:28;98029.47;;;10.79;77.68
17615;BME280;8926;49.720;6.576;2023-04-01T00:03:53;98023.13;;;10.72;77.98
17615;BME280;8926;49.720;6.576;2023-04-01T00:06:19;98036.44;;;10.69;77.71
17615;BME280;8926;49.720;6.576;2023-04-01T00:08:45;98035.59;;;10.69;77.93
17615;BME280;8926;49.720;6.576;2023-04-01T00:11:10;98024.63;;;10.65;78.16
17615;BME280;8926;49.720;6.576;2023-04-01T00:13:36;98042.06;;;10.65;78.45
17615;BME280;8926;49.720;6.576;2023-04-01T00:16:01;98028.31;;;10.63;78.49
17615;BME280;8926;49.720;6.576;2023-04-01T00:18:27;98023.22;;;10.61;78.68
17615;BME280;8926;49.720;6.576;2023-04-01T00:20:53;98032.97;;;10.59;78.74
17615;BME280;8926;49.720;6.576;2023-04-01T00:23:19;98026.91;;;10.59;79.21
17615;BME280;8926;49.720;6.576;2023-04-01T00:25:45;98033.22;;;10.56;79.01
17615;BME280;8926;49.720;6.576;2023-04-01T00:28:13;98024.94;;;10.51;79.08
17615;BME280;8926;49.720;6.576;2023-04-01T00:30:38;98037.28;;;10.49;79.42
17615;BME280;8926;49.720;6.576;2023-04-01T00:33:07;98020.78;;;10.48;79.29
17615;BME280;8926;49.720;6.576;2023-04-01T00:35:32;98039.91;;;10.49;79.47
17615;BME280;8926;49.720;6.576;2023-04-01T00:37:58;98032.31;;;10.46;79.31
17615;BME280;8926;49.720;6.576;2023-04-01T00:40:26;98033.72;;;10.50;79.03
17615;BME280;8926;49.720;6.576;2023-04-01T00:42:52;98027.09;;;10.46;79.15
17615;BME280;8926;49.720;6.576;2023-04-01T00:45:28;98019.97;;;10.48;79.03
17615;BME280;8926;49.720;6.576;2023-04-01T00:47:54;98035.88;;;10.45;79.12
17615;BME280;8926;49.720;6.576;2023-04-01T00:50:21;98031.25;;;10.48;79.10
17615;BME280;8926;49.720;6.576;2023-04-01T00:52:47;98032.06;;;10.49;79.60
17615;BME280;8926;49.720;6.576;2023-04-01T00:55:14;98027.09;;;10.46;79.65
17615;BME280;8926;49.720;6.576;2023-04-01T00:57:42;98032.44;;;10.44;79.13
17615;BME280;8926;49.720;6.576;2023-04-01T01:00:11;98037.53;;;10.46;79.25
17615;BME280;8926;49.720;6.576;2023-04-01T01:02:41;98028.75;;;10.47;79.00
17615;BME280;8926;49.720;6.576;2023-04-01T01:05:06;98028.75;;;10.47;79.31
17615;BME280;8926;49.720;6.576;2023-04-01T01:10:34;98022.31;;;10.51;79.13
17615;BME280;8926;49.720;6.576;2023-04-01T01:13:15;98024.94;;;10.51;79.10
17615;BME280;8926;49.720;6.576;2023-04-01T01:15:47;98019.13;;;10.47;79.42
17615;BME280;8926;49.720;6.576;2023-04-01T01:26:49;98003.34;;;10.49;78.54
17615;BME280;8926;49.720;6.576;2023-04-01T01:35:22;98010.94;;;10.52;78.30
17615;BME280;8926;49.720;6.576;2023-04-01T01:37:58;97995.97;;;10.54;77.90
17615;BME280;8926;49.720;6.576;2023-04-01T01:40:26;97993.09;;;10.57;78.33
17615;BME280;8926;49.720;6.576;2023-04-01T01:42:56;97993.34;;;10.54;78.14
17615;BME280;8926;49.720;6.576;2023-04-01T01:45:25;97993.09;;;10.57;77.65
17615;BME280;8926;49.720;6.576;2023-04-01T01:47:51;98000.22;;;10.55;78.55
17615;BME280;8926;49.720;6.576;2023-04-01T01:50:17;97996.91;;;10.53;78.09
17615;BME280;8926;49.720;6.576;2023-04-01T01:52:42;97995.00;;;10.55;78.49
17615;BME280;8926;49.720;6.576;2023-04-01T01:55:28;98002.13;;;10.53;78.59
17615;BME280;8926;49.720;6.576;2023-04-01T01:57:56;97999.53;;;10.53;79.05
17615;BME280;8926;49.720;6.576;2023-04-01T02:00:23;97991.94;;;10.50;79.00
17615;BME280;8926;49.720;6.576;2023-04-01T02:02:50;98008.56;;;10.49;79.66
17615;BME280;8926;49.720;6.576;2023-04-01T02:05:19;97994.13;;;10.45;79.94
17615;BME280;8926;49.720;6.576;2023-04-01T02:07:49;97998.63;;;10.43;80.63
17615;BME280;8926;49.720;6.576;2023-04-01T02:10:19;98000.53;;;10.41;81.41
17615;BME280;8926;49.720;6.576;2023-04-01T02:12:46;97995.75;;;10.36;82.33
17615;BME280;8926;49.720;6.576;2023-04-01T02:15:14;97997.53;;;10.36;82.42
17615;BME280;8926;49.720;6.576;2023-04-01T02:17:43;98003.13;;;10.31;83.08
17615;BME280;8926;49.720;6.576;2023-04-01T02:20:20;98014.88;;;10.26;83.05
17615;BME280;8926;49.720;6.576;2023-04-01T02:22:50;98011.81;;;10.20;83.34
17615;BME280;8926;49.720;6.576;2023-04-01T02:25:28;98011.81;;;10.20;83.92
17615;BME280;8926;49.720;6.576;2023-04-01T02:27:56;98009.91;;;10.23;84.28
17615;BME280;8926;49.720;6.576;2023-04-01T02:30:23;98010.63;;;10.13;84.98
17615;BME280;8926;49.720;6.576;2023-04-01T02:32:50;98017.25;;;10.17;84.73
17615;BME280;8926;49.720;6.576;2023-04-01T02:35:16;98015.19;;;10.11;85.36
17615;BME280;8926;49.720;6.576;2023-04-01T02:37:43;98019.13;;;10.06;86.17
17615;BME280;8926;49.720;6.576;2023-04-01T02:40:12;98010.34;;;10.07;85.85
17615;BME280;8926;49.720;6.576;2023-04-01T02:42:38;98007.84;;;10.05;86.42
17615;BME280;8926;49.720;6.576;2023-04-01T02:45:04;98009.44;;;9.97;86.90
17615;BME280;8926;49.720;6.576;2023-04-01T02:47:30;97999.81;;;9.97;86.51
17615;BME280;8926;49.720;6.576;2023-04-01T02:49:55;98010.50;;;9.94;86.72
17615;BME280;8926;49.720;6.576;2023-04-01T02:52:28;98010.25;;;9.97;86.44
17615;BME280;8926;49.720;6.576;2023-04-01T02:54:54;97995.09;;;9.91;86.78
17615;BME280;8926;49.720;6.576;2023-04-01T02:57:19;98004.16;;;9.87;86.92
17615;BME280;8926;49.720;6.576;2023-04-01T02:59:45;97991.25;;;9.85;86.65
17615;BME280;8926;49.720;6.576;2023-04-01T03:02:10;97993.97;;;9.84;86.75
17615;BME280;8926;49.720;6.576;2023-04-01T03:04:36;97993.97;;;9.84;86.82
17615;BME280;8926;49.720;6.576;2023-04-01T03:07:01;97982.97;;;9.80;87.10
17615;BME280;8926;49.720;6.576;2023-04-01T03:09:27;97989.00;;;9.81;86.63
17615;BME280;8926;49.720;6.576;2023-04-01T03:11:53;97987.34;;;9.80;87.10
17615;BME280;8926;49.720;6.576;2023-04-01T03:14:18;97989.72;;;9.83;86.86
17615;BME280;8926;49.720;6.576;2023-04-01T03:16:44;97992.56;;;9.80;86.71
17615;BME280;8926;49.720;6.576;2023-04-01T03:19:09;97988.06;;;9.82;86.41
17615;BME280;8926;49.720;6.576;2023-04-01T03:21:34;97982.50;;;9.75;86.88
17615;BME280;8926;49.720;6.576;2023-04-01T03:23:59;97987.59;;;9.77;86.49
17615;BME280;8926;49.720;6.576;2023-04-01T03:26:25;97993.06;;;9.74;86.79
17615;BME280;8926;49.720;6.576;2023-04-01T03:28:52;97994.97;;;9.72;86.85
17615;BME280;8926;49.720;6.576;2023-04-01T03:31:18;97989.50;;;9.75;86.62
17615;BME280;8926;49.720;6.576;2023-04-01T03:33:43;97993.63;;;9.77;86.49
17615;BME280;8926;49.720;6.576;2023-04-01T03:36:09;97992.81;;;9.77;86.58
17615;BME280;8926;49.720;6.576;2023-04-01T03:38:36;97985.94;;;9.76;86.88
17615;BME280;8926;49.720;6.576;2023-04-01T03:41:02;97988.91;;;9.71;87.34
17615;BME280;8926;49.720;6.576;2023-04-01T03:43:27;97990.00;;;9.69;87.02
17615;BME280;8926;49.720;6.576;2023-04-01T03:45:53;97984.53;;;9.72;87.46
17615;BME280;8926;49.720;6.576;2023-04-01T03:48:19;97982.63;;;9.74;86.98
17615;BME280;8926;49.720;6.576;2023-04-01T03:50:46;97975.75;;;9.73;86.85
17615;BME280;8926;49.720;6.576;2023-04-01T03:53:12;97974.34;;;9.69;87.55
17615;BME280;8926;49.720;6.576;2023-04-01T03:55:38;97980.50;;;9.68;87.33
17615;BME280;8926;49.720;6.576;2023-04-01T03:58:05;97969.13;;;9.69;86.85
17615;BME280;8926;49.720;6.576;2023-04-01T04:00:30;97971.03;;;9.67;87.86
17615;BME280;8926;49.720;6.576;2023-04-01T04:02:56;97977.91;;;9.68;87.47
17615;BME280;8926;49.720;6.576;2023-04-01T04:05:25;97976.94;;;9.69;86.79
17615;BME280;8926;49.720;6.576;2023-04-01T04:07:51;97976.94;;;9.69;86.78
17615;BME280;8926;49.720;6.576;2023-04-01T04:10:16;97971.75;;;9.69;86.46
17615;BME280;8926;49.720;6.576;2023-04-01T04:12:42;97979.31;;;9.72;87.03
17615;BME280;8926;49.720;6.576;2023-04-01T04:15:08;97976.25;;;9.67;87.37
17615;BME280;8926;49.720;6.576;2023-04-01T04:17:33;97982.41;;;9.66;88.05
17615;BME280;8926;49.720;6.576;2023-04-01T04:19:59;97984.31;;;9.64;88.36
17615;BME280;8926;49.720;6.576;2023-04-01T04:22:24;97979.81;;;9.66;88.06
17615;BME280;8926;49.720;6.576;2023-04-01T04:24:49;97982.28;;;9.67;87.93
17615;BME280;8926;49.720;6.576;2023-04-01T04:27:15;97980.31;;;9.60;88.37
17615;BME280;8926;49.720;6.576;2023-04-01T04:29:40;97981.72;;;9.64;88.32
17615;BME280;8926;49.720;6.576;2023-04-01T04:32:06;97984.19;;;9.65;88.67
17615;BME280;8926;49.720;6.576;2023-04-01T04:34:32;97971.28;;;9.64;88.59
17615;BME280;8926;49.720;6.576;2023-04-01T04:36:57;97971.56;;;9.61;89.03
17615;BME280;8926;49.720;6.576;2023-04-01T04:39:22;97975.00;;;9.61;89.39
17615;BME280;8926;49.720;6.576;2023-04-01T04:41:48;97977.72;;;9.60;89.33
17615;BME280;8926;49.720;6.576;2023-04-01T04:44:13;97973.47;;;9.59;89.77
17615;BME280;8926;49.720;6.576;2023-04-01T04:46:38;97983.88;;;9.59;89.87
17615;BME280;8926;49.720;6.576;2023-04-01T04:49:05;97982.22;;;9.58;89.94
17615;BME280;8926;49.720;6.576;2023-04-01T04:51:31;97989.34;;;9.56;90.23
17615;BME280;8926;49.720;6.576;2023-04-01T04:53:59;97985.78;;;9.57;90.50
17615;BME280;8926;49.720;6.576;2023-04-01T04:56:24;97988.50;;;9.55;90.92
17615;BME280;8926;49.720;6.576;2023-04-01T04:58:51;98000.59;;;9.56;90.89
17615;BME280;8926;49.720;6.576;2023-04-01T05:01:16;97985.78;;;9.57;90.98
17615;BME280;8926;49.720;6.576;2023-04-01T05:03:42;97999.78;;;9.56;91.25
17615;BME280;8926;49.720;6.576;2023-04-01T05:06:09;97995.25;;;9.58;90.99
17615;BME280;8926;49.720;6.576;2023-04-01T05:08:36;97982.66;;;9.63;91.01
17615;BME280;8926;49.720;6.576;2023-04-01T05:11:01;97992.25;;;9.62;91.56
17615;BME280;8926;49.720;6.576;2023-04-01T05:13:27;97994.03;;;9.62;91.96
17615;BME280;8926;49.720;6.576;2023-04-01T05:15:53;97992.13;;;9.64;91.65
17615;BME280;8926;49.720;6.576;2023-04-01T05:18:18;97996.53;;;9.63;92.13
17615;BME280;8926;49.720;6.576;2023-04-01T05:20:49;97993.56;;;9.68;92.50
17615;BME280;8926;49.720;6.576;2023-04-01T05:23:15;97999.59;;;9.68;92.34
17615;BME280;8926;49.720;6.576;2023-04-01T05:25:41;97999.94;;;9.75;92.15
17615;BME280;8926;49.720;6.576;2023-04-01T05:28:06;97997.31;;;9.75;91.71
17615;BME280;8926;49.720;6.576;2023-04-01T05:30:31;97999.44;;;9.81;91.56
17615;BME280;8926;49.720;6.576;2023-04-01T05:32:56;98002.41;;;9.76;91.83
17615;BME280;8926;49.720;6.576;2023-04-01T05:35:23;98003.25;;;9.77;91.62
17615;BME280;8926;49.720;6.576;2023-04-01T05:37:48;98004.19;;;9.76;91.71
17615;BME280;8926;49.720;6.576;2023-04-01T05:40:14;98001.84;;;9.73;92.60
17615;BME280;8926;49.720;6.576;2023-04-01T05:42:39;98010.59;;;9.72;91.91
17615;BME280;8926;49.720;6.576;2023-04-01T05:45:05;98011.19;;;9.75;92.74
17615;BME280;8926;49.720;6.576;2023-04-01T05:47:30;98006.31;;;9.82;92.53
17615;BME280;8926;49.720;6.576;2023-04-01T05:49:56;98006.06;;;9.85;92.05
17615;BME280;8926;49.720;6.576;2023-04-01T05:52:21;98017.75;;;9.91;91.29
17615;BME280;8926;49.720;6.576;2023-04-01T05:54:46;98008.84;;;9.93;91.84
17615;BME280;8926;49.720;6.576;2023-04-01T05:57:11;98011.66;;;10.01;91.06
17615;BME280;8926;49.720;6.576;2023-04-01T05:59:37;98010.84;;;10.01;90.76
17615;BME280;8926;49.720;6.576;2023-04-01T06:02:02;98018.53;;;10.02;91.01
17615;BME280;8926;49.720;6.576;2023-04-01T06:04:33;98020.19;;;10.03;90.98
17615;BME280;8926;49.720;6.576;2023-04-01T06:07:00;98024.47;;;10.04;90.96
17615;BME280;8926;49.720;6.576;2023-04-01T06:09:29;98025.91;;;9.97;91.40
17615;BME280;8926;49.720;6.576;2023-04-01T06:25:25;98022.59;;;9.95;92.36
17615;BME280;8926;49.720;6.576;2023-04-01T06:28:05;98024.97;;;9.98;92.06
17615;BME280;8926;49.720;6.576;2023-04-01T06:30:55;98028.53;;;9.97;92.66
17615;BME280;8926;49.720;6.576;2023-04-01T06:33:47;98037.06;;;9.99;93.84
17615;BME280;8926;49.720;6.576;2023-04-01T06:36:35;98034.91;;;10.04;92.79
17615;BME280;8926;49.720;6.576;2023-04-01T06:46:58;98046.50;;;10.11;93.45
17615;BME280;8926;49.720;6.576;2023-04-01T06:49:44;98045.25;;;10.15;93.76
17615;BME280;8926;49.720;6.576;2023-04-01T06:52:19;98053.59;;;10.20;93.95
17615;BME280;8926;49.720;6.576;2023-04-01T06:57:47;98057.09;;;10.31;92.10
17615;BME280;8926;49.720;6.576;2023-04-01T07:00:22;98055.44;;;10.30;92.23
17615;BME280;8926;49.720;6.576;2023-04-01T07:02:59;98053.66;;;10.30;92.04
17615;BME280;8926;49.720;6.576;2023-04-01T07:05:34;98055.69;;;10.27;93.24
17615;BME280;8926;49.720;6.576;2023-04-01T07:08:06;98056.66;;;10.26;92.99
17615;BME280;8926;49.720;6.576;2023-04-01T07:13:49;98068.16;;;10.23;93.72
17615;BME280;8926;49.720;6.576;2023-04-01T07:16:20;98055.69;;;10.27;93.58
17615;BME280;8926;49.720;6.576;2023-04-01T07:19:05;98061.88;;;10.26;93.72
17615;BME280;8926;49.720;6.576;2023-04-01T07:22:34;98065.69;;;10.22;94.32
17615;BME280;8926;49.720;6.576;2023-04-01T07:24:33;98067.34;;;10.23;94.73
17615;BME280;8926;49.720;6.576;2023-04-01T07:26:59;98063.91;;;10.22;95.24
17615;BME280;8926;49.720;6.576;2023-04-01T07:29:26;98065.19;;;10.28;94.75
17615;BME280;8926;49.720;6.576;2023-04-01T07:37:27;98073.91;;;10.38;94.46
17615;BME280;8926;49.720;6.576;2023-04-01T07:40:01;98077.91;;;10.42;95.02
17615;BME280;8926;49.720;6.576;2023-04-01T07:43:09;98081.09;;;10.45;94.30
17615;BME280;8926;49.720;6.576;2023-04-01T07:46:06;98087.13;;;10.46;93.88
17615;BME280;8926;49.720;6.576;2023-04-01T07:49:06;98090.47;;;10.48;94.27
17615;BME280;8926;49.720;6.576;2023-04-01T07:51:47;98088.31;;;10.53;94.29
17615;BME280;8926;49.720;6.576;2023-04-01T07:57:25;98096.47;;;10.60;94.20
17615;BME280;8926;49.720;6.576;2023-04-01T08:00:02;98094.13;;;10.66;93.63
17615;BME280;8926;49.720;6.576;2023-04-01T08:05:11;98100.50;;;10.73;93.31
17615;BME280;8926;49.720;6.576;2023-04-01T08:07:52;98108.34;;;10.73;93.07
17615;BME280;8926;49.720;6.576;2023-04-01T08:10:32;98108.34;;;10.73;93.75
17615;BME280;8926;49.720;6.576;2023-04-01T08:13:12;98120.19;;;10.77;93.34
17615;BME280;8926;49.720;6.576;2023-04-01T08:15:55;98120.19;;;10.77;93.70
17615;BME280;8926;49.720;6.576;2023-04-01T08:21:16;98126.97;;;10.80;93.70
17615;BME280;8926;49.720;6.576;2023-04-01T08:23:46;98130.97;;;10.84;94.08
17615;BME280;8926;49.720;6.576;2023-04-01T08:28:49;98136.53;;;10.91;93.42
17615;BME280;8926;49.720;6.576;2023-04-01T08:31:19;98127.97;;;10.88;93.30
17615;BME280;8926;49.720;6.576;2023-04-01T08:33:48;98133.91;;;10.91;93.13
17615;BME280;8926;49.720;6.576;2023-04-01T08:36:36;98136.22;;;10.94;93.81
17615;BME280;8926;49.720;6.576;2023-04-01T08:39:16;98135.97;;;10.97;93.85
17615;BME280;8926;49.720;6.576;2023-04-01T08:53:06;98134.44;;;11.15;92.42
17615;BME280;8926;49.720;6.576;2023-04-01T09:04:14;98136.97;;;11.26;93.43
17615;BME280;8926;49.720;6.576;2023-04-01T09:06:55;98140.84;;;11.32;93.03
17615;BME280;8926;49.720;6.576;2023-04-01T09:09:48;98136.84;;;11.28;93.45
17615;BME280;8926;49.720;6.576;2023-04-01T09:12:19;98147.41;;;11.26;93.07
17615;BME280;8926;49.720;6.576;2023-04-01T09:15:02;98140.78;;;11.22;93.51
17615;BME280;8926;49.720;6.576;2023-04-01T09:18:24;98136.09;;;11.16;93.69
17615;BME280;8926;49.720;6.576;2023-04-01T09:29:54;98135.03;;;11.28;93.04
17615;BME280;8926;49.720;6.576;2023-04-01T09:38:42;98139.50;;;11.37;92.40
17615;BME280;8926;49.720;6.576;2023-04-01T09:41:31;98137.72;;;11.47;92.02
17615;BME280;8926;49.720;6.576;2023-04-01T09:57:27;98148.00;;;11.70;89.83
17615;BME280;8926;49.720;6.576;2023-04-01T10:03:25;98155.06;;;11.79;89.81
17615;BME280;8926;49.720;6.576;2023-04-01T10:08:49;98162.47;;;11.74;89.50
17615;BME280;8926;49.720;6.576;2023-04-01T10:17:28;98181.25;;;11.79;89.23
17615;BME280;8926;49.720;6.576;2023-04-01T10:26:02;98185.66;;;11.78;89.72
17615;BME280;8926;49.720;6.576;2023-04-01T10:31:18;98187.50;;;11.67;90.28
17615;BME280;8926;49.720;6.576;2023-04-01T10:36:56;98187.16;;;11.50;91.61
17615;BME280;8926;49.720;6.576;2023-04-01T11:17:27;98170.59;;;12.78;85.94
17615;BME280;8926;49.720;6.576;2023-04-01T11:20:25;98170.88;;;12.95;84.59
17615;BME280;8926;49.720;6.576;2023-04-01T11:34:11;98174.72;;;12.90;83.50
17615;BME280;8926;49.720;6.576;2023-04-01T11:39:42;98187.03;;;12.61;83.93
17615;BME280;8926;49.720;6.576;2023-04-01T11:52:58;98207.16;;;12.61;85.52
17615;BME280;8926;49.720;6.576;2023-04-01T11:55:50;98212.13;;;12.64;84.30
17615;BME280;8926;49.720;6.576;2023-04-01T11:58:46;98215.97;;;12.50;84.99
17615;BME280;8926;49.720;6.576;2023-04-01T12:02:03;98220.94;;;12.53;85.96
17615;BME280;8926;49.720;6.576;2023-04-01T12:04:54;98230.88;;;12.59;85.25
17615;BME280;8926;49.720;6.576;2023-04-01T12:07:35;98231.13;;;12.56;85.79
17615;BME280;8926;49.720;6.576;2023-04-01T12:13:20;98254.78;;;12.26;85.95
17615;BME280;8926;49.720;6.576;2023-04-01T12:16:15;98245.28;;;12.24;86.47
17615;BME280;8926;49.720;6.576;2023-04-01T12:18:56;98258.94;;;12.18;86.06
17615;BME280;8926;49.720;6.576;2023-04-01T12:21:36;98264.25;;;12.07;86.49
17615;BME280;8926;49.720;6.576;2023-04-01T12:24:42;98260.16;;;12.14;86.78
17615;BME280;8926;49.720;6.576;2023-04-01T12:32:40;98260.34;;;12.42;86.80
17615;BME280;8926;49.720;6.576;2023-04-01T12:35:20;98266.03;;;12.47;87.04
17615;BME280;8926;49.720;6.576;2023-04-01T12:38:04;98264.63;;;12.52;86.28
17615;BME280;8926;49.720;6.576;2023-04-01T12:43:55;98253.63;;;12.68;85.53
17615;BME280;8926;49.720;6.576;2023-04-01T12:46:32;98252.22;;;12.74;85.14
17615;BME280;8926;49.720;6.576;2023-04-01T12:52:13;98251.41;;;12.73;86.04
17615;BME280;8926;49.720;6.576;2023-04-01T12:58:15;98251.00;;;12.87;83.68
17615;BME280;8926;49.720;6.576;2023-04-01T13:09:11;98263.31;;;13.16;82.68
17615;BME280;8926;49.720;6.576;2023-04-01T13:14:58;98277.13;;;13.18;82.31
17615;BME280;8926;49.720;6.576;2023-04-01T13:20:36;98283.16;;;13.09;80.68
17615;BME280;8926;49.720;6.576;2023-04-01T13:37:55;98305.50;;;12.94;80.78
17615;BME280;8926;49.720;6.576;2023-04-01T13:42:58;98308.25;;;12.82;80.91
17615;BME280;8926;49.720;6.576;2023-04-01T13:45:33;98320.13;;;12.86;81.20
17615;BME280;8926;49.720;6.576;2023-04-01T13:48:26;98321.63;;;12.79;80.20
17615;BME280;8926;49.720;6.576;2023-04-01T13:51:07;98317.63;;;12.85;80.82
17615;BME280;8926;49.720;6.576;2023-04-01T13:54:01;98323.16;;;12.91;79.89
17615;BME280;8926;49.720;6.576;2023-04-01T13:57:00;98318.06;;;12.90;79.48
17615;BME280;8926;49.720;6.576;2023-04-01T14:08:20;98326.25;;;12.47;81.65
17615;BME280;8926;49.720;6.576;2023-04-01T14:27:23;98349.03;;;12.26;84.79
17615;BME280;8926;49.720;6.576;2023-04-01T14:35:48;98352.41;;;12.07;83.80
17615;BME280;8926;49.720;6.576;2023-04-01T14:38:42;98361.81;;;12.09;84.14
17615;BME280;8926;49.720;6.576;2023-04-01T14:44:17;98357.06;;;12.03;84.58
17615;BME280;8926;49.720;6.576;2023-04-01T14:46:54;98359.78;;;11.92;84.88
17615;BME280;8926;49.720;6.576;2023-04-01T14:49:37;98372.75;;;11.94;85.35
17615;BME280;8926;49.720;6.576;2023-04-01T14:52:27;98363.94;;;11.95;85.67
17615;BME280;8926;49.720;6.576;2023-04-01T14:54:56;98375.50;;;11.92;85.56
17615;BME280;8926;49.720;6.576;2023-04-01T14:57:27;98374.47;;;11.83;85.58
17615;BME280;8926;49.720;6.576;2023-04-01T15:00:00;98368.84;;;11.88;85.72
17615;BME280;8926;49.720;6.576;2023-04-01T15:02:33;98377.78;;;11.85;85.85
17615;BME280;8926;49.720;6.576;2023-04-01T15:06:00;98374.09;;;11.88;85.67
17615;BME280;8926;49.720;6.576;2023-04-01T15:08:08;98376.97;;;11.85;86.15
17615;BME280;8926;49.720;6.576;2023-04-01T15:10:49;98374.00;;;11.99;85.77
17615;BME280;8926;49.720;6.576;2023-04-01T15:13:29;98375.53;;;12.02;85.19
17615;BME280;8926;49.720;6.576;2023-04-01T15:16:21;98379.41;;;12.07;84.89
17615;BME280;8926;49.720;6.576;2023-04-01T15:19:04;98381.47;;;12.04;85.39
17615;BME280;8926;49.720;6.576;2023-04-01T15:21:47;98379.09;;;12.01;85.00
17615;BME280;8926;49.720;6.576;2023-04-01T15:41:17;98402.34;;;12.15;83.42
17615;BME280;8926;49.720;6.576;2023-04-01T15:43:46;98408.09;;;12.09;83.79
17615;BME280;8926;49.720;6.576;2023-04-01T15:52:34;98403.94;;;12.06;83.32
17615;BME280;8926;49.720;6.576;2023-04-01T16:03:17;98424.75;;;11.87;84.03
17615;BME280;8926;49.720;6.576;2023-04-01T16:06:01;98422.84;;;11.89;84.45
17615;BME280;8926;49.720;6.576;2023-04-01T16:18:06;98423.16;;;11.96;82.79
17615;BME280;8926;49.720;6.576;2023-04-01T16:20:27;98438.31;;;11.92;82.33
17615;BME280;8926;49.720;6.576;2023-04-01T16:23:09;98438.06;;;11.95;82.57
17615;BME280;8926;49.720;6.576;2023-04-01T16:25:40;98434.97;;;11.90;82.79
17615;BME280;8926;49.720;6.576;2023-04-01T16:28:24;98440.66;;;11.95;83.20
17615;BME280;8926;49.720;6.576;2023-04-01T16:31:00;98443.00;;;11.98;82.81
17615;BME280;8926;49.720;6.576;2023-04-01T16:36:08;98448.00;;;12.01;82.42
17615;BME280;8926;49.720;6.576;2023-04-01T16:38:52;98449.66;;;12.02;82.42
17615;BME280;8926;49.720;6.576;2023-04-01T16:41:27;98446.84;;;11.94;82.30
17615;BME280;8926;49.720;6.576;2023-04-01T16:44:13;98465.94;;;11.85;82.50
17615;BME280;8926;49.720;6.576;2023-04-01T16:46:44;98463.94;;;11.77;82.76
17615;BME280;8926;49.720;6.576;2023-04-01T16:51:54;98469.19;;;11.66;84.37
17615;BME280;8926;49.720;6.576;2023-04-01T16:54:47;98473.06;;;11.72;84.83
17615;BME280;8926;49.720;6.576;2023-04-01T17:00:30;98483.53;;;11.72;84.49
17615;BME280;8926;49.720;6.576;2023-04-01T17:03:11;98488.78;;;11.72;84.43
17615;BME280;8926;49.720;6.576;2023-04-01T17:11:21;98493.13;;;11.62;84.68
17615;BME280;8926;49.720;6.576;2023-04-01T17:16:59;98493.34;;;11.59;84.88
17615;BME280;8926;49.720;6.576;2023-04-01T17:22:17;98496.59;;;11.51;85.11
17615;BME280;8926;49.720;6.576;2023-04-01T17:30:24;98506.44;;;11.47;85.00
17615;BME280;8926;49.720;6.576;2023-04-01T17:35:53;98514.22;;;11.38;85.45
17615;BME280;8926;49.720;6.576;2023-04-01T17:41:30;98521.94;;;11.28;84.88
17615;BME280;8926;49.720;6.576;2023-04-01T17:44:34;98527.41;;;11.25;85.07
17615;BME280;8926;49.720;6.576;2023-04-01T17:58:10;98541.91;;;11.18;85.04
17615;BME280;8926;49.720;6.576;2023-04-01T18:01:13;98550.97;;;11.14;85.09
17615;BME280;8926;49.720;6.576;2023-04-01T18:12:34;98550.94;;;10.92;86.07
17615;BME280;8926;49.720;6.576;2023-04-01T18:15:10;98560.59;;;10.91;86.76
17615;BME280;8926;49.720;6.576;2023-04-01T18:20:29;98559.28;;;10.97;86.92
17615;BME280;8926;49.720;6.576;2023-04-01T18:23:12;98561.53;;;11.01;87.12
17615;BME280;8926;49.720;6.576;2023-04-01T18:25:41;98572.59;;;11.05;86.90
17615;BME280;8926;49.720;6.576;2023-04-01T18:28:32;98572.13;;;11.11;87.07
17615;BME280;8926;49.720;6.576;2023-04-01T18:34:21;98567.81;;;11.21;86.81
17615;BME280;8926;49.720;6.576;2023-04-01T18:36:47;98577.69;;;11.17;86.08
17615;BME280;8926;49.720;6.576;2023-04-01T18:39:35;98575.78;;;11.19;86.46
17615;BME280;8926;49.720;6.576;2023-04-01T18:45:03;98588.03;;;11.19;85.98
17615;BME280;8926;49.720;6.576;2023-04-01T18:47:44;98595.63;;;11.22;85.82
17615;BME280;8926;49.720;6.576;2023-04-01T18:52:59;98608.59;;;11.23;85.57
17615;BME280;8926;49.720;6.576;2023-04-01T18:56:06;98613.47;;;11.17;84.97
17615;BME280;8926;49.720;6.576;2023-04-01T18:58:45;98621.56;;;11.14;84.89
17615;BME280;8926;49.720;6.576;2023-04-01T19:03:48;98621.28;;;11.06;85.84
17615;BME280;8926;49.720;6.576;2023-04-01T19:06:36;98630.09;;;11.05;86.00
17615;BME280;8926;49.720;6.576;2023-04-01T19:09:23;98630.81;;;11.07;86.23
17615;BME280;8926;49.720;6.576;2023-04-01T19:17:32;98644.34;;;11.12;85.99
17615;BME280;8926;49.720;6.576;2023-04-01T19:22:47;98654.56;;;11.04;86.16
17615;BME280;8926;49.720;6.576;2023-04-01T19:25:37;98658.09;;;10.92;86.86
17615;BME280;8926;49.720;6.576;2023-04-01T19:31:24;98667.53;;;10.70;88.67
17615;BME280;8926;49.720;6.576;2023-04-01T19:34:40;98663.63;;;10.65;88.79
17615;BME280;8926;49.720;6.576;2023-04-01T19:45:57;98684.34;;;10.55;90.13
17615;BME280;8926;49.720;6.576;2023-04-01T19:48:49;98684.13;;;10.58;89.47
17615;BME280;8926;49.720;6.576;2023-04-01T19:51:30;98684.34;;;10.55;90.16
17615;BME280;8926;49.720;6.576;2023-04-01T19:56:36;98684.13;;;10.58;90.40
17615;BME280;8926;49.720;6.576;2023-04-01T19:59:28;98697.91;;;10.60;90.36
17615;BME280;8926;49.720;6.576;2023-04-01T20:04:40;98703.63;;;10.65;89.62
17615;BME280;8926;49.720;6.576;2023-04-01T20:07:21;98707.06;;;10.66;89.49
17615;BME280;8926;49.720;6.576;2023-04-01T20:10:14;98703.63;;;10.65;90.29
17615;BME280;8926;49.720;6.576;2023-04-01T20:15:31;98705.78;;;10.71;89.99
17615;BME280;8926;49.720;6.576;2023-04-01T20:18:00;98710.16;;;10.71;90.28
17615;BME280;8926;49.720;6.576;2023-04-01T20:20:29;98726.22;;;10.77;90.19
17615;BME280;8926;49.720;6.576;2023-04-01T20:23:06;98724.34;;;10.79;89.90
17615;BME280;8926;49.720;6.576;2023-04-01T20:25:46;98732.88;;;10.81;89.00
17615;BME280;8926;49.720;6.576;2023-04-01T20:28:22;98734.78;;;10.79;89.15
17615;BME280;8926;49.720;6.576;2023-04-01T20:31:07;98738.13;;;10.81;88.90
17615;BME280;8926;49.720;6.576;2023-04-01T20:33:46;98734.78;;;10.79;88.76
17615;BME280;8926;49.720;6.576;2023-04-01T20:36:44;98746.91;;;10.80;88.70
17615;BME280;8926;49.720;6.576;2023-04-01T20:42:37;98752.34;;;10.77;87.91
17615;BME280;8926;49.720;6.576;2023-04-01T20:45:17;98755.91;;;10.76;87.74
17615;BME280;8926;49.720;6.576;2023-04-01T20:50:41;98756.34;;;10.70;88.26
17615;BME280;8926;49.720;6.576;2023-04-01T21:33:05;98783.31;;;10.71;86.37